Time;durP1;ratioP1;P1;durP2;ratioP2;P2;SDS_P1;SDS_P2;PMS_P1;PMS_P2;Temp;Humidity;BMP_temperature;BMP_pressure;BME280_temperature;BME280_humidity;BME280_pressure;Samples;Min_cycle;Max_cycle;Signal;HPM_P1;HPM_P2
2022/12/17 13:06:40;;;;;;;21.35;9.13;;;;;;;-4.13;100.00;99324.00;5016597;28;20053;-57
2022/12/17 13:09:21;;;;;;;23.55;10.80;;;;;;;-4.35;100.00;99289.44;5016862;28;20379;-59
2022/12/17 13:11:49;;;;;;;27.20;10.38;;;;;;;-4.48;100.00;99274.69;5016433;28;20109;-59
2022/12/17 13:14:19;;;;;;;23.98;11.65;;;;;;;-4.39;100.00;99286.47;5016672;28;20054;-60
2022/12/17 13:16:52;;;;;;;22.58;9.80;;;;;;;-4.35;100.00;99284.88;5016503;28;20054;-58
2022/12/17 13:19:32;;;;;;;30.40;10.85;;;;;;;-4.43;100.00;99288.09;5016640;28;20046;-60
2022/12/17 13:22:27;;;;;;;20.63;8.25;;;;;;;-4.39;100.00;99289.16;5016663;28;20144;-59
2022/12/17 13:24:56;;;;;;;22.17;10.27;;;;;;;-4.62;100.00;99277.03;5016322;28;20148;-55
2022/12/17 13:27:30;;;;;;;21.80;8.93;;;;;;;-4.67;100.00;99278.88;5016715;28;20059;-58
2022/12/17 13:29:56;;;;;;;13.82;7.47;;;;;;;-4.77;100.00;99282.31;5016255;28;20443;-55
2022/12/17 13:32:27;;;;;;;20.38;9.75;;;;;;;-4.93;100.00;99294.00;5016455;28;20348;-58
2022/12/17 13:35:12;;;;;;;33.30;10.45;;;;;;;-4.77;100.00;99325.13;5016292;28;20148;-59
2022/12/17 13:37:46;;;;;;;18.58;8.95;;;;;;;-4.84;100.00;99325.34;5016223;28;20148;-60
2022/12/17 13:40:34;;;;;;;20.65;9.80;;;;;;;-4.94;100.00;99322.63;5016447;28;20149;-61
2022/12/17 13:43:02;;;;;;;22.20;8.80;;;;;;;-4.76;100.00;99342.78;5016141;28;20060;-59
2022/12/17 13:45:35;;;;;;;18.45;7.40;;;;;;;-4.82;100.00;99346.50;5016552;28;20049;-59
2022/12/17 13:48:02;;;;;;;22.52;9.52;;;;;;;-4.94;100.00;99325.28;5016075;28;20045;-58
2022/12/17 13:50:30;;;;;;;23.15;10.02;;;;;;;-5.09;100.00;99339.38;5015973;28;20141;-59
2022/12/17 13:53:07;;;;;;;26.15;9.80;;;;;;;-4.90;100.00;99373.72;5016265;28;20058;-57
2022/12/17 13:55:33;;;;;;;23.23;10.50;;;;;;;-5.06;100.00;99370.16;5016088;28;20313;-60
2022/12/17 13:58:00;;;;;;;25.73;10.75;;;;;;;-5.23;100.00;99370.31;5016329;28;20427;-55
2022/12/17 14:00:29;;;;;;;21.50;9.13;;;;;;;-5.28;100.00;99373.72;5016539;28;20054;-59
2022/12/17 14:02:55;;;;;;;28.23;10.32;;;;;;;-5.17;100.00;99384.50;5019331;28;20073;-54
2022/12/17 14:05:25;;;;;;;19.13;8.15;;;;;;;-4.90;100.00;99398.59;5019587;28;20200;-59
2022/12/17 14:07:53;;;;;;;21.52;9.85;;;;;;;-5.14;100.00;99373.28;5019693;28;20064;-54
2022/12/17 14:10:20;;;;;;;23.13;9.88;;;;;;;-5.11;100.00;99375.47;5019262;28;20161;-60
2022/12/17 14:12:46;;;;;;;19.55;7.97;;;;;;;-5.05;100.00;99379.78;5019485;28;20140;-56
2022/12/17 14:15:21;;;;;;;23.77;8.13;;;;;;;-5.27;100.00;99351.28;5019237;28;20427;-61
2022/12/17 14:17:49;;;;;;;22.27;9.13;;;;;;;-5.00;100.00;99388.66;5019581;28;20058;-57
2022/12/17 14:20:18;;;;;;;21.92;10.45;;;;;;;-5.36;100.00;99363.53;5019342;28;20404;-54
2022/12/17 14:22:47;;;;;;;18.60;8.93;;;;;;;-5.39;100.00;99379.25;5019189;28;20064;-60
2022/12/17 14:25:17;;;;;;;24.02;10.93;;;;;;;-5.44;100.00;99386.16;5019338;28;20060;-56
2022/12/17 14:27:52;;;;;;;25.25;10.40;;;;;;;-5.26;100.00;99403.69;5019155;28;20057;-56
2022/12/17 14:30:23;;;;;;;22.67;10.50;;;;;;;-5.25;100.00;99378.56;5019492;28;20050;-58
2022/12/17 14:32:49;;;;;;;19.90;9.00;;;;;;;-5.55;100.00;99367.63;5018901;28;20327;-56
2022/12/17 14:35:24;;;;;;;14.77;7.60;;;;;;;-5.36;100.00;99398.25;5019366;28;20061;-60
2022/12/17 14:37:50;;;;;;;21.65;8.60;;;;;;;-5.21;100.00;99422.44;5018971;28;20100;-59
2022/12/17 14:40:18;;;;;;;35.38;8.82;;;;;;;-5.23;100.00;99411.19;5018746;28;20054;-55
2022/12/17 14:42:44;;;;;;;21.30;9.35;;;;;;;-5.37;100.00;99404.66;5019206;28;20057;-61
2022/12/17 14:45:23;;;;;;;20.58;8.85;;;;;;;-5.24;100.00;99409.56;5018817;28;20415;-61
2022/12/17 14:47:54;;;;;;;20.90;9.30;;;;;;;-5.48;100.00;99401.09;5018943;28;20445;-56
2022/12/17 14:50:28;;;;;;;16.77;7.07;;;;;;;-5.50;100.00;99392.53;5018662;28;20060;-58
2022/12/17 14:52:57;;;;;;;14.18;6.00;;;;;;;-5.37;100.00;99401.19;5019123;28;20054;-55
2022/12/17 14:55:30;;;;;;;18.45;8.93;;;;;;;-5.50;100.00;99397.88;5018658;28;20112;-57
2022/12/17 14:58:17;;;;;;;17.70;6.15;;;;;;;-5.49;100.00;99406.69;5018841;28;20068;-57
2022/12/17 15:00:47;;;;;;;23.08;8.80;;;;;;;-5.39;100.00;99405.97;5019000;28;20054;-57
2022/12/17 15:03:19;;;;;;;11.18;7.20;;;;;;;-5.49;100.00;99414.72;5018454;28;20107;-55
2022/12/17 15:05:51;;;;;;;18.20;7.53;;;;;;;-5.36;100.00;99424.97;5019075;28;20058;-56
2022/12/17 15:08:18;;;;;;;19.02;9.10;;;;;;;-5.52;100.00;99402.66;5018291;28;20049;-58
2022/12/17 15:10:45;;;;;;;17.80;8.45;;;;;;;-5.30;100.00;99415.97;5018938;28;20076;-55
2022/12/17 15:13:12;;;;;;;18.27;7.90;;;;;;;-5.19;100.00;99416.03;5017626;28;20434;-56
2022/12/17 15:15:39;;;;;;;23.92;9.93;;;;;;;-5.45;100.00;99367.72;5018355;28;20050;-58
2022/12/17 15:18:06;;;;;;;23.30;8.25;;;;;;;-5.42;100.00;99377.91;5018316;28;20081;-54
2022/12/17 15:20:33;;;;;;;14.82;6.95;;;;;;;-5.24;100.00;99382.84;5018288;28;20096;-56
2022/12/17 15:23:01;;;;;;;17.52;7.57;;;;;;;-5.53;100.00;99352.97;5018406;28;20072;-61
2022/12/17 15:25:27;;;;;;;25.65;10.05;;;;;;;-5.39;100.00;99353.34;5018193;28;20046;-58
2022/12/17 15:27:55;;;;;;;20.45;9.35;;;;;;;-5.48;100.00;99370.91;5018320;28;20100;-60
2022/12/17 15:30:22;;;;;;;15.40;6.80;;;;;;;-5.25;100.00;99380.44;5018027;28;20050;-55
2022/12/17 15:32:49;;;;;;;12.10;6.60;;;;;;;-5.36;100.00;99371.53;5018323;28;20300;-54
2022/12/17 15:35:16;;;;;;;14.13;7.10;;;;;;;-5.36;100.00;99374.22;5018063;28;20383;-57
2022/12/17 15:37:42;;;;;;;20.38;7.82;;;;;;;-5.45;100.00;99384.56;5018443;28;20092;-60
2022/12/17 15:40:10;;;;;;;31.42;10.07;;;;;;;-5.58;100.00;99366.28;5018074;28;20057;-59
2022/12/17 15:45:22;;;;;;;19.30;9.23;;;;;;;-5.42;100.00;99395.81;5018030;28;20327;-57
2022/12/17 15:47:49;;;;;;;16.15;7.93;;;;;;;-5.44;100.00;99398.72;5017938;28;20092;-58
2022/12/17 15:50:17;;;;;;;17.95;8.93;;;;;;;-5.36;100.00;99403.59;5018021;28;20100;-60
2022/12/17 15:52:44;;;;;;;21.02;10.15;;;;;;;-5.41;100.00;99400.88;5017770;28;20052;-59
2022/12/17 15:55:12;;;;;;;18.92;8.50;;;;;;;-5.48;100.00;99398.41;5017682;28;20111;-57
2022/12/17 15:57:39;;;;;;;15.43;7.78;;;;;;;-5.54;100.00;99418.13;5017679;28;20060;-57
2022/12/17 16:00:07;;;;;;;16.25;7.82;;;;;;;-5.31;100.00;99437.56;5018070;28;20077;-55
2022/12/17 16:02:35;;;;;;;10.05;5.07;;;;;;;-5.29;100.00;99446.97;5000811;28;20192;-53
2022/12/17 16:05:01;;;;;;;24.15;11.00;;;;;;;-5.59;100.00;99439.47;5017990;28;20064;-57
2022/12/17 16:07:28;;;;;;;24.80;10.20;;;;;;;-5.42;100.00;99443.91;5017697;28;20050;-58
2022/12/17 16:09:55;;;;;;;19.05;8.35;;;;;;;-5.28;100.00;99461.13;5017495;28;20485;-60
2022/12/17 16:12:22;;;;;;;19.20;9.57;;;;;;;-5.38;100.00;99439.66;5017578;28;20054;-59
2022/12/17 16:14:48;;;;;;;19.73;8.38;;;;;;;-5.33;100.00;99461.88;5017601;28;20317;-54
2022/12/17 16:17:15;;;;;;;11.20;4.63;;;;;;;-5.16;100.00;99483.16;5017623;28;20053;-55
2022/12/17 16:19:43;;;;;;;17.95;8.68;;;;;;;-5.26;100.00;99472.38;5017399;28;20416;-58
2022/12/17 16:22:10;;;;;;;17.15;7.43;;;;;;;-5.11;100.00;99490.41;5017658;28;20050;-58
2022/12/17 16:24:36;;;;;;;22.58;9.70;;;;;;;-5.31;100.00;99475.00;5016188;28;20133;-61
2022/12/17 16:27:03;;;;;;;16.27;8.55;;;;;;;-5.17;100.00;99478.06;5017526;28;20100;-60
2022/12/17 16:29:30;;;;;;;19.02;8.73;;;;;;;-5.16;100.00;99474.31;5017206;28;20339;-54
2022/12/17 16:31:57;;;;;;;25.05;9.73;;;;;;;-5.48;100.00;99459.06;5017590;28;20054;-55
2022/12/17 16:34:24;;;;;;;17.15;8.43;;;;;;;-5.26;100.00;99494.56;5017144;28;20053;-59
2022/12/17 16:36:52;;;;;;;25.33;9.00;;;;;;;-5.36;100.00;99505.16;5017373;28;20068;-61
2022/12/17 16:39:19;;;;;;;24.40;11.73;;;;;;;-5.27;100.00;99516.19;5017099;28;20065;-56
2022/12/17 16:41:46;;;;;;;20.65;10.35;;;;;;;-5.46;100.00;99497.03;5017054;28;20443;-58
2022/12/17 16:44:13;;;;;;;18.42;7.88;;;;;;;-5.36;100.00;99499.81;5017207;28;20066;-57
2022/12/17 16:46:42;;;;;;;16.77;7.25;;;;;;;-5.27;100.00;99518.84;5016914;28;20089;-57
2022/12/17 16:49:10;;;;;;;27.83;10.30;;;;;;;-5.34;100.00;99519.06;5017180;28;20442;-59
2022/12/17 16:51:37;;;;;;;17.45;8.73;;;;;;;-5.14;100.00;99550.53;5016881;28;20054;-55
2022/12/17 16:54:08;;;;;;;18.52;7.88;;;;;;;-5.11;100.00;99543.88;5016874;28;20141;-60
2022/12/17 16:56:35;;;;;;;15.60;7.88;;;;;;;-5.14;100.00;99539.03;5017040;28;20053;-58
2022/12/17 16:59:03;;;;;;;21.30;8.93;;;;;;;-5.17;100.00;99537.66;5017487;28;20103;-57
2022/12/17 17:01:30;;;;;;;18.00;8.40;;;;;;;-5.23;100.00;99528.81;5016801;28;20050;-59
2022/12/17 17:03:57;;;;;;;23.98;9.77;;;;;;;-5.33;100.00;99528.69;5016724;28;20135;-59
2022/12/17 17:06:24;;;;;;;18.30;8.77;;;;;;;-5.33;100.00;99544.72;5016789;28;20399;-59
2022/12/17 17:08:51;;;;;;;27.85;10.18;;;;;;;-5.15;100.00;99578.31;5016797;28;20057;-55
2022/12/17 17:11:20;;;;;;;25.13;9.70;;;;;;;-5.23;100.00;99582.25;5016972;28;20116;-58
2022/12/17 17:13:47;;;;;;;21.90;8.32;;;;;;;-4.91;100.00;99604.75;5016741;28;20191;-59
2022/12/17 17:16:15;;;;;;;16.70;7.35;;;;;;;-5.07;100.00;99593.91;5017039;28;20427;-58
2022/12/17 17:18:41;;;;;;;18.33;8.50;;;;;;;-5.48;100.00;99577.41;5016783;28;20141;-58
2022/12/17 17:21:33;;;;;;;27.65;10.73;;;;;;;-5.47;100.00;99599.59;5016934;28;20135;-55
2022/12/17 17:24:03;;;;;;;22.67;9.38;;;;;;;-5.33;100.00;99608.03;4997920;28;20062;-60
2022/12/17 17:26:32;;;;;;;27.40;11.18;;;;;;;-5.53;100.00;99597.91;5016384;28;20095;-56
2022/12/17 17:29:01;;;;;;;17.58;7.25;;;;;;;-5.27;100.00;99626.56;5016738;28;20323;-55
2022/12/17 17:31:29;;;;;;;17.48;8.43;;;;;;;-5.46;100.00;99622.59;5016285;28;20408;-54
2022/12/17 17:33:56;;;;;;;18.77;8.93;;;;;;;-5.27;100.00;99636.44;5016602;28;20045;-56
2022/12/17 17:36:24;;;;;;;25.85;11.18;;;;;;;-5.55;100.00;99619.53;5018293;28;20061;-54
2022/12/17 17:38:53;;;;;;;10.18;5.15;;;;;;;-5.44;100.00;99628.50;5020173;28;20058;-57
2022/12/17 17:41:21;;;;;;;21.05;8.73;;;;;;;-5.49;100.00;99639.13;5019743;28;20050;-58
2022/12/17 17:43:53;;;;;;;27.80;10.57;;;;;;;-5.34;100.00;99651.88;5020219;28;20089;-60
2022/12/17 17:46:20;;;;;;;27.45;10.82;;;;;;;-5.14;100.00;99656.66;5019786;28;20050;-56
2022/12/17 17:48:48;;;;;;;18.92;8.68;;;;;;;-4.99;100.00;99659.50;5019558;28;20324;-60
2022/12/17 17:51:20;;;;;;;23.27;8.75;;;;;;;-5.03;100.00;99643.16;5019842;28;20419;-61
2022/12/17 17:53:48;;;;;;;21.95;9.32;;;;;;;-5.02;100.00;99643.97;5019531;28;20100;-58
2022/12/17 17:56:17;;;;;;;26.35;10.35;;;;;;;-5.32;100.00;99628.38;5019779;28;20419;-57
2022/12/17 17:58:46;;;;;;;22.27;9.57;;;;;;;-5.41;100.00;99641.34;5019552;28;20053;-57
2022/12/17 18:01:15;;;;;;;23.33;10.10;;;;;;;-5.34;100.00;99663.34;5019775;28;20081;-57
2022/12/17 18:03:42;;;;;;;27.20;9.73;;;;;;;-5.32;100.00;99666.59;5019612;28;20507;-57
2022/12/17 18:06:12;;;;;;;23.52;8.40;;;;;;;-5.25;100.00;99669.09;5019842;28;20057;-58
2022/12/17 18:08:40;;;;;;;27.35;10.85;;;;;;;-5.31;100.00;99670.88;5019276;28;20054;-54
2022/12/17 18:11:10;;;;;;;19.80;8.35;;;;;;;-5.34;100.00;99673.25;5019822;28;20439;-55
2022/12/17 18:13:55;;;;;;;13.45;7.05;;;;;;;-5.37;100.00;99673.72;5019285;28;20374;-59
2022/12/17 18:16:24;;;;;;;25.58;12.05;;;;;;;-5.37;100.00;99665.72;5019445;28;20083;-58
2022/12/17 18:18:51;;;;;;;36.95;12.20;;;;;;;-5.49;100.00;99677.34;5019427;28;20404;-60
2022/12/17 18:21:19;;;;;;;18.90;9.02;;;;;;;-5.28;100.00;99683.75;5019176;28;20482;-58
2022/12/17 18:23:46;;;;;;;23.48;8.82;;;;;;;-5.21;100.00;99687.03;5019626;28;20065;-58
2022/12/17 18:26:15;;;;;;;24.92;10.18;;;;;;;-5.28;100.00;99701.66;5019069;28;20054;-56
2022/12/17 18:28:43;;;;;;;14.68;5.45;;;;;;;-5.33;100.00;99707.75;5019505;28;20096;-58
2022/12/17 18:31:15;;;;;;;26.10;10.88;;;;;;;-5.31;100.00;99705.63;5018978;28;20339;-58
2022/12/17 18:33:45;;;;;;;34.72;11.05;;;;;;;-5.61;100.00;99705.22;5019299;28;20046;-58
2022/12/17 18:36:15;;;;;;;23.52;10.38;;;;;;;-5.49;100.00;99727.28;5019064;28;20049;-56
2022/12/17 18:38:42;;;;;;;25.15;9.07;;;;;;;-5.31;100.00;99728.88;5018972;28;20140;-54
2022/12/17 18:43:58;;;;;;;21.25;8.38;;;;;;;-5.49;100.00;99735.31;5019013;28;20056;-57
2022/12/17 18:46:25;;;;;;;7.72;4.18;;;;;;;-5.33;100.00;99747.00;5018931;28;20438;-60
2022/12/17 18:48:55;;;;;;;30.25;10.20;;;;;;;-5.34;100.00;99743.53;5017955;28;20371;-59
2022/12/17 18:51:22;;;;;;;27.60;10.45;;;;;;;-5.46;100.00;99724.94;5019224;28;20147;-56
2022/12/17 18:53:49;;;;;;;26.13;9.20;;;;;;;-5.59;100.00;99727.16;5018612;28;20064;-53
2022/12/17 18:56:17;;;;;;;19.63;8.27;;;;;;;-5.47;100.00;99736.66;5018693;28;20053;-61
2022/12/17 18:58:44;;;;;;;23.60;10.77;;;;;;;-5.52;100.00;99741.16;5018676;28;20045;-59
2022/12/17 19:01:19;;;;;;;22.15;10.07;;;;;;;-5.44;100.00;99746.06;5018734;28;20053;-57
2022/12/17 19:03:45;;;;;;;28.35;12.07;;;;;;;-5.34;100.00;99758.75;5018764;28;20060;-56
2022/12/17 19:06:13;;;;;;;20.00;9.32;;;;;;;-5.23;100.00;99760.53;5018568;28;20081;-55
2022/12/17 19:08:40;;;;;;;23.13;10.30;;;;;;;-5.39;100.00;99751.50;5018637;28;20061;-60
2022/12/17 19:11:08;;;;;;;20.50;9.45;;;;;;;-5.22;100.00;99754.13;5018780;28;20064;-56
2022/12/17 19:13:35;;;;;;;10.07;6.32;;;;;;;-5.30;100.00;99749.19;5018796;28;20083;-59
2022/12/17 19:16:07;;;;;;;28.02;11.02;;;;;;;-5.33;100.00;99752.34;5018360;28;20054;-60
2022/12/17 19:18:34;;;;;;;17.73;7.50;;;;;;;-5.21;100.00;99753.88;5018785;28;20085;-58
2022/12/17 19:21:01;;;;;;;18.92;8.68;;;;;;;-5.38;100.00;99752.28;5018576;28;20049;-59
2022/12/17 19:23:29;;;;;;;17.35;7.35;;;;;;;-5.41;100.00;99756.25;5018353;28;20053;-54
2022/12/17 19:25:55;;;;;;;17.38;7.50;;;;;;;-5.39;100.00;99761.38;5018341;28;20061;-59
2022/12/17 19:28:22;;;;;;;23.35;10.07;;;;;;;-5.34;100.00;99764.09;5018118;28;20061;-58
2022/12/17 19:30:56;;;;;;;22.15;9.70;;;;;;;-5.45;100.00;99769.31;5018308;28;20046;-57
2022/12/17 19:33:23;;;;;;;18.88;7.97;;;;;;;-5.31;100.00;99761.75;5018083;28;20049;-57
2022/12/17 19:35:50;;;;;;;15.05;6.05;;;;;;;-5.39;100.00;99756.84;5018428;28;20431;-56
2022/12/17 19:38:16;;;;;;;23.92;9.70;;;;;;;-5.61;100.00;99753.28;5017985;28;20061;-56
2022/12/17 19:40:44;;;;;;;23.10;10.15;;;;;;;-5.59;100.00;99762.69;5018476;28;20053;-54
2022/12/17 19:43:11;;;;;;;20.25;6.75;;;;;;;-5.44;100.00;99772.78;5017950;28;20049;-59
2022/12/17 19:45:37;;;;;;;25.77;9.77;;;;;;;-5.53;100.00;99774.25;5018596;28;20057;-56
2022/12/17 19:48:04;;;;;;;23.00;9.48;;;;;;;-5.46;100.00;99785.59;5017808;28;20383;-60
2022/12/17 19:50:33;;;;;;;22.05;9.45;;;;;;;-5.41;100.00;99780.31;5017858;28;20050;-56
2022/12/17 19:53:00;;;;;;;20.63;8.88;;;;;;;-5.46;100.00;99783.72;5017910;28;20140;-54
2022/12/17 19:55:26;;;;;;;19.50;8.70;;;;;;;-5.44;100.00;99773.59;5017913;28;20404;-59
2022/12/17 19:57:53;;;;;;;15.10;6.75;;;;;;;-5.31;100.00;99772.44;5017896;28;20416;-57
2022/12/17 20:00:20;;;;;;;20.98;8.82;;;;;;;-5.53;100.00;99763.53;5017700;28;20046;-58
2022/12/17 20:02:46;;;;;;;25.83;10.38;;;;;;;-5.46;100.00;99770.38;5018048;28;20128;-58
2022/12/17 20:05:12;;;;;;;22.75;7.70;;;;;;;-5.60;100.00;99771.72;5017610;28;20049;-58
2022/12/17 20:07:39;;;;;;;17.58;6.82;;;;;;;-5.40;100.00;99795.28;5017965;28;20108;-54
2022/12/17 20:10:06;;;;;;;25.90;8.70;;;;;;;-5.53;100.00;99785.75;5017542;28;20085;-53
2022/12/17 20:12:33;;;;;;;20.52;9.23;;;;;;;-5.46;100.00;99801.63;5017958;28;20049;-59
2022/12/17 20:15:00;;;;;;;25.67;11.02;;;;;;;-5.47;100.00;99791.97;5017401;28;20487;-58
2022/12/17 20:17:26;;;;;;;21.33;9.38;;;;;;;-5.54;100.00;99792.13;5017693;28;20085;-59
2022/12/17 20:19:55;;;;;;;19.75;8.93;;;;;;;-5.46;100.00;99798.94;5017624;28;20050;-59
2022/12/17 20:22:21;;;;;;;16.17;7.13;;;;;;;-5.38;100.00;99808.41;5017413;28;20146;-56
2022/12/17 20:24:48;;;;;;;27.38;11.45;;;;;;;-5.62;100.00;99810.44;5017489;28;20089;-60
2022/12/17 20:27:14;;;;;;;23.30;9.20;;;;;;;-5.49;100.00;99818.13;5017207;28;20089;-58
2022/12/17 20:29:40;;;;;;;19.02;8.88;;;;;;;-5.65;100.00;99813.59;5017541;28;20050;-54
2022/12/17 20:32:07;;;;;;;21.70;7.30;;;;;;;-5.41;100.00;99830.28;5017250;28;20461;-59
2022/12/17 20:34:36;;;;;;;14.05;5.40;;;;;;;-5.49;100.00;99832.31;5017416;28;20108;-59
2022/12/17 20:37:06;;;;;;;22.63;9.45;;;;;;;-5.67;100.00;99817.31;5017136;28;20054;-59
2022/12/17 20:39:33;;;;;;;19.20;6.18;;;;;;;-5.55;100.00;99837.81;5017700;28;20111;-58
2022/12/17 20:41:59;;;;;;;23.77;9.18;;;;;;;-5.71;100.00;99842.88;5017026;28;20060;-55
2022/12/17 20:44:25;;;;;;;24.77;10.75;;;;;;;-5.82;100.00;99833.09;5017042;28;20050;-59
2022/12/17 20:46:52;;;;;;;18.50;8.65;;;;;;;-5.62;100.00;99842.50;5017232;28;20195;-57
2022/12/17 20:49:19;;;;;;;11.50;6.68;;;;;;;-5.55;100.00;99840.47;5016979;28;20065;-54
2022/12/17 20:51:45;;;;;;;25.58;11.35;;;;;;;-5.91;100.00;99821.16;5017173;28;20137;-57
2022/12/17 20:54:12;;;;;;;27.38;10.25;;;;;;;-6.02;100.00;99832.75;5017007;28;20111;-56
2022/12/17 20:56:38;;;;;;;18.55;8.15;;;;;;;-5.91;100.00;99829.19;5017288;28;20060;-59
2022/12/17 20:59:07;;;;;;;18.75;7.40;;;;;;;-5.84;100.00;99837.84;5017058;28;20053;-52
2022/12/17 21:01:35;;;;;;;30.90;8.20;;;;;;;-5.79;100.00;99843.28;5017149;28;20400;-56
2022/12/17 21:04:03;;;;;;;17.45;7.97;;;;;;;-5.85;100.00;99836.25;5016827;28;20087;-59
2022/12/17 21:06:33;;;;;;;24.13;10.20;;;;;;;-5.79;100.00;99837.94;5017221;28;20049;-57
2022/12/17 21:08:59;;;;;;;22.10;10.45;;;;;;;-5.94;100.00;99833.16;5016866;28;20368;-60
2022/12/17 21:11:28;;;;;;;21.55;8.80;;;;;;;-5.81;100.00;99844.56;5015969;28;20301;-53
2022/12/17 21:13:55;;;;;;;15.98;7.20;;;;;;;-5.83;100.00;99847.50;5016957;28;20076;-58
2022/12/17 21:16:23;;;;;;;12.38;6.32;;;;;;;-5.82;100.00;99851.78;5016562;28;20053;-55
2022/12/17 21:18:52;;;;;;;21.85;8.57;;;;;;;-6.03;100.00;99847.13;5016896;28;20136;-56
2022/12/17 21:21:20;;;;;;;22.75;8.25;;;;;;;-6.07;100.00;99857.50;5016593;28;20089;-58
2022/12/17 21:23:48;;;;;;;15.52;6.70;;;;;;;-5.73;100.00;99873.53;5016921;28;20451;-60
2022/12/17 21:26:16;;;;;;;19.45;7.63;;;;;;;-5.79;100.00;99871.88;5016480;28;20144;-58
2022/12/17 21:28:44;;;;;;;25.23;8.70;;;;;;;-5.78;100.00;99878.81;5016799;28;20200;-57
2022/12/17 21:31:16;;;;;;;23.00;8.82;;;;;;;-5.91;100.00;99880.72;5016293;28;20049;-59
2022/12/17 21:33:42;;;;;;;22.55;6.13;;;;;;;-5.90;100.00;99886.88;5016467;28;20340;-60
2022/12/17 21:36:09;;;;;;;13.73;6.20;;;;;;;-5.75;100.00;99891.69;5016357;28;20481;-57
2022/12/17 21:38:35;;;;;;;13.70;6.82;;;;;;;-5.81;100.00;99890.78;5016260;28;20096;-59
2022/12/17 21:41:05;;;;;;;16.75;7.65;;;;;;;-5.81;100.00;99897.97;5016637;28;20054;-57
2022/12/17 21:43:31;;;;;;;17.30;6.65;;;;;;;-5.99;100.00;99910.50;5016240;28;20057;-59
2022/12/17 21:45:59;;;;;;;18.92;7.75;;;;;;;-5.75;100.00;99907.72;5016445;28;20392;-58
2022/12/17 21:48:25;;;;;;;23.38;8.20;;;;;;;-5.92;100.00;99918.34;5016202;28;20058;-55
2022/12/17 21:50:52;;;;;;;17.30;8.45;;;;;;;-5.82;100.00;99920.41;5016602;28;20054;-59
2022/12/17 21:53:19;;;;;;;17.65;7.78;;;;;;;-5.79;100.00;99912.72;5016175;28;20050;-56
2022/12/17 21:55:45;;;;;;;15.75;6.53;;;;;;;-5.73;100.00;99916.28;5016721;28;20049;-58
2022/12/17 21:58:12;;;;;;;19.23;7.82;;;;;;;-5.75;100.00;99911.19;5016137;28;20058;-55
2022/12/17 22:00:38;;;;;;;22.77;9.20;;;;;;;-5.91;100.00;99901.28;5016248;28;20053;-59
2022/12/17 22:03:04;;;;;;;14.27;7.10;;;;;;;-5.94;100.00;99889.25;5015926;28;20089;-55
2022/12/17 22:05:31;;;;;;;16.45;7.68;;;;;;;-6.23;100.00;99891.09;5016225;28;20054;-59
2022/12/17 22:07:58;;;;;;;7.47;4.00;;;;;;;-5.94;100.00;99888.44;5016226;28;20335;-55
2022/12/17 22:10:24;;;;;;;16.70;7.18;;;;;;;-6.10;100.00;99892.66;5015911;28;20418;-58
2022/12/17 22:15:37;;;;;;;14.57;7.20;;;;;;;-5.96;100.00;99896.69;5016056;28;20173;-59
2022/12/17 22:18:04;;;;;;;18.33;7.55;;;;;;;-5.82;100.00;99883.03;5016269;28;20054;-59
2022/12/17 22:20:30;;;;;;;18.67;8.40;;;;;;;-5.78;100.00;99886.81;5015825;28;20054;-58
2022/12/17 22:22:56;;;;;;;17.92;7.53;;;;;;;-5.69;100.00;99880.06;5019022;28;20153;-57
2022/12/17 22:25:23;;;;;;;13.95;6.20;;;;;;;-5.65;100.00;99867.03;5019090;28;20050;-59
2022/12/17 22:27:49;;;;;;;14.32;6.18;;;;;;;-5.71;100.00;99848.22;5019039;28;20065;-56
2022/12/17 22:33:03;;;;;;;13.43;4.95;;;;;;;-5.82;100.00;99810.91;5019067;28;20387;-58
2022/12/17 22:35:34;;;;;;;14.27;6.03;;;;;;;-5.80;100.00;99796.25;5018958;28;20050;-59
2022/12/17 22:38:01;;;;;;;15.55;6.07;;;;;;;-5.75;100.00;99792.88;5018921;28;20089;-58
2022/12/17 22:40:28;;;;;;;19.63;6.60;;;;;;;-5.82;100.00;99779.69;5019299;28;20081;-58
2022/12/17 22:45:39;;;;;;;16.40;6.63;;;;;;;-5.68;100.00;99796.19;5019461;28;20068;-58
2022/12/17 22:48:07;;;;;;;18.58;7.93;;;;;;;-5.58;100.00;99784.84;5018713;28;20050;-59
2022/12/17 22:50:33;;;;;;;16.50;7.68;;;;;;;-5.64;100.00;99775.16;5018763;28;20115;-54
2022/12/17 22:52:59;;;;;;;18.38;7.85;;;;;;;-5.59;100.00;99762.69;5019098;28;20090;-58
2022/12/17 22:55:26;;;;;;;19.27;7.28;;;;;;;-5.51;100.00;99748.91;5018890;28;20064;-57
2022/12/17 22:57:52;;;;;;;23.25;8.30;;;;;;;-5.57;100.00;99723.16;5019076;28;20062;-54
2022/12/17 23:00:21;;;;;;;19.25;8.48;;;;;;;-5.67;100.00;99710.47;5018641;28;20053;-60
2022/12/17 23:02:50;;;;;;;14.82;7.03;;;;;;;-5.80;100.00;99708.13;5019031;28;20377;-58
2022/12/17 23:05:18;;;;;;;13.02;5.65;;;;;;;-5.79;100.00;99720.44;5018597;28;20062;-57
2022/12/17 23:07:44;;;;;;;18.13;6.95;;;;;;;-5.62;100.00;99739.13;5018857;28;20050;-60
2022/12/17 23:10:10;;;;;;;15.43;6.90;;;;;;;-5.90;100.00;99732.00;5018510;28;20058;-56
2022/12/17 23:12:52;;;;;;;14.02;6.03;;;;;;;-5.81;100.00;99746.56;5018891;28;20049;-54
2022/12/17 23:15:22;;;;;;;21.00;8.60;;;;;;;-5.91;100.00;99749.88;5018515;28;20049;-54
2022/12/17 23:17:49;;;;;;;14.70;6.57;;;;;;;-5.82;100.00;99762.84;5018583;28;20121;-55
2022/12/17 23:20:16;;;;;;;14.50;6.40;;;;;;;-5.97;100.00;99760.75;5018558;28;20145;-56
2022/12/17 23:22:43;;;;;;;12.95;6.70;;;;;;;-6.09;100.00;99782.19;5018405;28;20200;-60
2022/12/17 23:25:10;;;;;;;16.98;6.95;;;;;;;-6.08;100.00;99809.69;5018533;28;20057;-56
2022/12/17 23:27:37;;;;;;;10.68;5.13;;;;;;;-5.80;100.00;99835.50;5018244;28;20119;-54
2022/12/17 23:30:04;;;;;;;21.58;8.90;;;;;;;-5.86;100.00;99829.28;5018876;28;20416;-59
2022/12/17 23:32:30;;;;;;;18.35;7.45;;;;;;;-5.62;100.00;99832.63;5018091;28;20060;-58
2022/12/17 23:34:57;;;;;;;21.80;8.43;;;;;;;-5.79;100.00;99813.13;5017474;28;20064;-57
2022/12/17 23:37:23;;;;;;;16.90;6.28;;;;;;;-5.54;100.00;99820.72;5018025;28;20053;-61
2022/12/17 23:39:50;;;;;;;19.73;8.20;;;;;;;-5.78;100.00;99782.69;5018265;28;20103;-53
2022/12/17 23:42:16;;;;;;;21.65;7.65;;;;;;;-5.88;100.00;99782.50;5018306;28;20425;-60
2022/12/17 23:44:43;;;;;;;17.05;8.13;;;;;;;-5.59;100.00;99808.09;5018175;28;20426;-57
2022/12/17 23:47:09;;;;;;;18.50;7.25;;;;;;;-5.80;100.00;99785.56;5018014;28;20065;-55
2022/12/17 23:49:35;;;;;;;23.23;7.85;;;;;;;-5.64;100.00;99783.97;5017869;28;20053;-60
2022/12/17 23:52:02;;;;;;;20.60;9.52;;;;;;;-5.84;100.00;99755.06;5018271;28;20060;-55
2022/12/17 23:54:28;;;;;;;22.08;8.63;;;;;;;-5.83;100.00;99756.72;5018058;28;20060;-58
2022/12/17 23:56:55;;;;;;;18.27;7.00;;;;;;;-5.89;100.00;99765.69;5018070;28;20064;-61
2022/12/17 23:59:21;;;;;;;21.95;8.93;;;;;;;-5.89;100.00;99764.88;5017740;28;20103;-59
